sensor_id;sensor_type;location;lat;lon;timestamp;temperature;humidity
1936;DHT22;969;49.892;10.896;2023-11-21T00:02:04;21.50;59.00
1936;DHT22;969;49.892;10.896;2023-11-21T00:04:30;21.50;59.00
1936;DHT22;969;49.892;10.896;2023-11-21T00:06:55;21.50;59.00
1936;DHT22;969;49.892;10.896;2023-11-21T00:09:21;21.50;58.90
1936;DHT22;969;49.892;10.896;2023-11-21T00:11:47;21.50;58.90
1936;DHT22;969;49.892;10.896;2023-11-21T00:14:12;21.50;59.40
1936;DHT22;969;49.892;10.896;2023-11-21T00:16:41;21.50;58.90
1936;DHT22;969;49.892;10.896;2023-11-21T00:19:06;21.50;58.90
1936;DHT22;969;49.892;10.896;2023-11-21T00:21:32;21.50;58.90
1936;DHT22;969;49.892;10.896;2023-11-21T00:23:58;21.50;58.90
1936;DHT22;969;49.892;10.896;2023-11-21T00:26:23;21.50;58.90
1936;DHT22;969;49.892;10.896;2023-11-21T00:28:50;21.50;58.90
1936;DHT22;969;49.892;10.896;2023-11-21T00:31:16;21.40;58.80
1936;DHT22;969;49.892;10.896;2023-11-21T00:33:41;21.40;58.80
1936;DHT22;969;49.892;10.896;2023-11-21T00:36:08;21.40;58.80
1936;DHT22;969;49.892;10.896;2023-11-21T00:38:35;21.40;58.80
1936;DHT22;969;49.892;10.896;2023-11-21T00:41:01;21.40;58.80
1936;DHT22;969;49.892;10.896;2023-11-21T00:43:28;21.40;58.80
1936;DHT22;969;49.892;10.896;2023-11-21T00:45:53;21.40;58.80
1936;DHT22;969;49.892;10.896;2023-11-21T00:48:19;21.40;59.30
1936;DHT22;969;49.892;10.896;2023-11-21T00:50:45;21.40;58.80
1936;DHT22;969;49.892;10.896;2023-11-21T00:53:10;21.40;58.80
1936;DHT22;969;49.892;10.896;2023-11-21T00:55:36;21.40;58.80
1936;DHT22;969;49.892;10.896;2023-11-21T00:58:02;21.40;58.80
1936;DHT22;969;49.892;10.896;2023-11-21T01:00:29;21.40;58.80
1936;DHT22;969;49.892;10.896;2023-11-21T01:02:55;21.40;58.80
1936;DHT22;969;49.892;10.896;2023-11-21T01:05:21;21.40;58.90
1936;DHT22;969;49.892;10.896;2023-11-21T01:07:46;21.40;58.90
1936;DHT22;969;49.892;10.896;2023-11-21T01:10:12;21.40;58.90
1936;DHT22;969;49.892;10.896;2023-11-21T01:12:38;21.40;58.90
1936;DHT22;969;49.892;10.896;2023-11-21T01:15:07;21.40;58.80
1936;DHT22;969;49.892;10.896;2023-11-21T01:17:33;21.40;58.80
1936;DHT22;969;49.892;10.896;2023-11-21T01:20:02;21.40;58.90
1936;DHT22;969;49.892;10.896;2023-11-21T01:22:31;21.40;58.90
1936;DHT22;969;49.892;10.896;2023-11-21T01:24:57;21.40;58.80
1936;DHT22;969;49.892;10.896;2023-11-21T01:27:23;21.40;58.80
1936;DHT22;969;49.892;10.896;2023-11-21T01:29:48;21.40;58.80
1936;DHT22;969;49.892;10.896;2023-11-21T01:32:14;21.40;58.80
1936;DHT22;969;49.892;10.896;2023-11-21T01:34:39;21.40;58.80
1936;DHT22;969;49.892;10.896;2023-11-21T01:37:05;21.40;58.80
1936;DHT22;969;49.892;10.896;2023-11-21T01:39:31;21.30;58.80
1936;DHT22;969;49.892;10.896;2023-11-21T01:41:57;21.30;58.80
1936;DHT22;969;49.892;10.896;2023-11-21T01:44:26;21.30;58.80
1936;DHT22;969;49.892;10.896;2023-11-21T01:46:52;21.30;58.80
1936;DHT22;969;49.892;10.896;2023-11-21T01:49:17;21.30;58.80
1936;DHT22;969;49.892;10.896;2023-11-21T01:51:48;21.30;58.90
1936;DHT22;969;49.892;10.896;2023-11-21T01:54:15;21.30;58.80
1936;DHT22;969;49.892;10.896;2023-11-21T01:56:43;21.30;58.80
1936;DHT22;969;49.892;10.896;2023-11-21T01:59:12;21.30;58.80
1936;DHT22;969;49.892;10.896;2023-11-21T02:01:39;21.30;58.80
1936;DHT22;969;49.892;10.896;2023-11-21T02:04:05;21.30;58.80
1936;DHT22;969;49.892;10.896;2023-11-21T02:06:30;21.30;58.80
1936;DHT22;969;49.892;10.896;2023-11-21T02:08:56;21.30;59.40
1936;DHT22;969;49.892;10.896;2023-11-21T02:11:22;21.30;58.80
1936;DHT22;969;49.892;10.896;2023-11-21T02:13:47;21.30;58.80
1936;DHT22;969;49.892;10.896;2023-11-21T02:16:15;21.30;58.80
1936;DHT22;969;49.892;10.896;2023-11-21T02:18:41;21.30;58.80
1936;DHT22;969;49.892;10.896;2023-11-21T02:21:07;21.30;58.80
1936;DHT22;969;49.892;10.896;2023-11-21T02:23:33;21.30;58.90
1936;DHT22;969;49.892;10.896;2023-11-21T02:25:59;21.20;58.80
1936;DHT22;969;49.892;10.896;2023-11-21T02:28:29;21.30;58.90
1936;DHT22;969;49.892;10.896;2023-11-21T02:30:55;21.20;58.80
1936;DHT22;969;49.892;10.896;2023-11-21T02:33:22;21.20;58.80
1936;DHT22;969;49.892;10.896;2023-11-21T02:35:48;21.30;58.90
1936;DHT22;969;49.892;10.896;2023-11-21T02:38:13;21.20;58.80
1936;DHT22;969;49.892;10.896;2023-11-21T02:40:39;21.20;58.80
1936;DHT22;969;49.892;10.896;2023-11-21T02:43:05;21.20;58.80
1936;DHT22;969;49.892;10.896;2023-11-21T02:45:31;21.20;58.90
1936;DHT22;969;49.892;10.896;2023-11-21T02:47:58;21.20;58.90
1936;DHT22;969;49.892;10.896;2023-11-21T02:50:24;21.20;58.80
1936;DHT22;969;49.892;10.896;2023-11-21T02:52:49;21.20;58.80
1936;DHT22;969;49.892;10.896;2023-11-21T02:55:15;21.20;58.80
1936;DHT22;969;49.892;10.896;2023-11-21T02:57:41;21.20;58.80
1936;DHT22;969;49.892;10.896;2023-11-21T03:00:07;21.20;58.80
1936;DHT22;969;49.892;10.896;2023-11-21T03:02:33;21.20;58.80
1936;DHT22;969;49.892;10.896;2023-11-21T03:05:02;21.20;58.80
1936;DHT22;969;49.892;10.896;2023-11-21T03:07:28;21.20;58.80
1936;DHT22;969;49.892;10.896;2023-11-21T03:09:53;21.20;58.80
1936;DHT22;969;49.892;10.896;2023-11-21T03:12:19;21.30;58.90
1936;DHT22;969;49.892;10.896;2023-11-21T03:14:45;21.20;58.80
1936;DHT22;969;49.892;10.896;2023-11-21T03:17:10;21.20;58.80
1936;DHT22;969;49.892;10.896;2023-11-21T03:19:37;21.20;58.80
1936;DHT22;969;49.892;10.896;2023-11-21T03:22:02;21.20;59.40
1936;DHT22;969;49.892;10.896;2023-11-21T03:24:29;21.20;58.80
1936;DHT22;969;49.892;10.896;2023-11-21T03:26:55;21.20;58.80
1936;DHT22;969;49.892;10.896;2023-11-21T03:29:20;21.20;58.80
1936;DHT22;969;49.892;10.896;2023-11-21T03:31:46;21.20;58.80
1936;DHT22;969;49.892;10.896;2023-11-21T03:34:27;21.20;58.80
1936;DHT22;969;49.892;10.896;2023-11-21T03:36:53;21.20;58.80
1936;DHT22;969;49.892;10.896;2023-11-21T03:39:22;21.20;58.80
1936;DHT22;969;49.892;10.896;2023-11-21T03:41:48;21.20;58.80
1936;DHT22;969;49.892;10.896;2023-11-21T03:44:14;21.20;58.80
1936;DHT22;969;49.892;10.896;2023-11-21T03:46:39;21.20;58.80
1936;DHT22;969;49.892;10.896;2023-11-21T03:49:05;21.20;58.80
1936;DHT22;969;49.892;10.896;2023-11-21T03:51:31;21.20;58.80
1936;DHT22;969;49.892;10.896;2023-11-21T03:53:56;21.10;58.80
1936;DHT22;969;49.892;10.896;2023-11-21T03:56:22;21.10;58.80
1936;DHT22;969;49.892;10.896;2023-11-21T03:58:48;21.20;58.90
1936;DHT22;969;49.892;10.896;2023-11-21T04:01:24;21.20;58.90
1936;DHT22;969;49.892;10.896;2023-11-21T04:03:50;21.20;58.90
1936;DHT22;969;49.892;10.896;2023-11-21T04:06:16;21.20;58.90
1936;DHT22;969;49.892;10.896;2023-11-21T04:08:43;21.10;58.80
1936;DHT22;969;49.892;10.896;2023-11-21T04:11:10;21.10;58.80
1936;DHT22;969;49.892;10.896;2023-11-21T04:13:40;21.10;58.80
1936;DHT22;969;49.892;10.896;2023-11-21T04:16:07;21.20;58.90
1936;DHT22;969;49.892;10.896;2023-11-21T04:18:34;21.10;58.80
1936;DHT22;969;49.892;10.896;2023-11-21T04:21:00;21.10;58.80
1936;DHT22;969;49.892;10.896;2023-11-21T04:23:26;21.10;58.80
1936;DHT22;969;49.892;10.896;2023-11-21T04:25:52;21.10;58.80
1936;DHT22;969;49.892;10.896;2023-11-21T04:28:19;21.10;58.80
1936;DHT22;969;49.892;10.896;2023-11-21T04:30:45;21.10;58.80
1936;DHT22;969;49.892;10.896;2023-11-21T04:33:10;21.10;58.80
1936;DHT22;969;49.892;10.896;2023-11-21T04:35:36;21.10;58.80
1936;DHT22;969;49.892;10.896;2023-11-21T04:38:02;21.10;58.80
1936;DHT22;969;49.892;10.896;2023-11-21T04:40:28;21.10;58.80
1936;DHT22;969;49.892;10.896;2023-11-21T04:42:53;21.10;58.80
1936;DHT22;969;49.892;10.896;2023-11-21T04:45:19;21.10;58.80
1936;DHT22;969;49.892;10.896;2023-11-21T04:47:44;21.10;58.80
1936;DHT22;969;49.892;10.896;2023-11-21T04:50:10;21.10;58.80
1936;DHT22;969;49.892;10.896;2023-11-21T04:52:36;21.10;58.80
1936;DHT22;969;49.892;10.896;2023-11-21T04:55:02;21.10;58.80
1936;DHT22;969;49.892;10.896;2023-11-21T04:57:27;21.10;58.80
1936;DHT22;969;49.892;10.896;2023-11-21T04:59:54;21.10;58.80
1936;DHT22;969;49.892;10.896;2023-11-21T05:02:19;21.10;58.80
1936;DHT22;969;49.892;10.896;2023-11-21T05:04:46;21.10;58.80
1936;DHT22;969;49.892;10.896;2023-11-21T05:07:12;21.10;58.80
1936;DHT22;969;49.892;10.896;2023-11-21T05:09:42;21.10;58.80
1936;DHT22;969;49.892;10.896;2023-11-21T05:12:09;21.10;58.80
1936;DHT22;969;49.892;10.896;2023-11-21T05:14:35;21.10;58.80
1936;DHT22;969;49.892;10.896;2023-11-21T05:17:00;21.10;58.80
1936;DHT22;969;49.892;10.896;2023-11-21T05:19:26;21.10;58.80
1936;DHT22;969;49.892;10.896;2023-11-21T05:21:52;21.10;58.80
1936;DHT22;969;49.892;10.896;2023-11-21T05:24:18;21.10;58.80
1936;DHT22;969;49.892;10.896;2023-11-21T05:26:43;21.10;58.90
1936;DHT22;969;49.892;10.896;2023-11-21T05:29:09;21.10;58.90
1936;DHT22;969;49.892;10.896;2023-11-21T05:31:36;21.10;58.90
1936;DHT22;969;49.892;10.896;2023-11-21T05:34:03;21.00;58.80
1936;DHT22;969;49.892;10.896;2023-11-21T05:36:28;21.10;58.90
1936;DHT22;969;49.892;10.896;2023-11-21T05:38:54;21.00;58.80
1936;DHT22;969;49.892;10.896;2023-11-21T05:41:19;21.10;58.90
1936;DHT22;969;49.892;10.896;2023-11-21T05:43:45;21.10;58.90
1936;DHT22;969;49.892;10.896;2023-11-21T05:46:11;21.10;59.50
1936;DHT22;969;49.892;10.896;2023-11-21T05:48:36;21.10;59.00
1936;DHT22;969;49.892;10.896;2023-11-21T05:51:04;21.10;58.90
1936;DHT22;969;49.892;10.896;2023-11-21T05:53:30;21.10;58.90
1936;DHT22;969;49.892;10.896;2023-11-21T05:55:56;21.10;58.90
1936;DHT22;969;49.892;10.896;2023-11-21T05:58:22;21.10;58.80
1936;DHT22;969;49.892;10.896;2023-11-21T06:00:47;21.10;58.80
1936;DHT22;969;49.892;10.896;2023-11-21T06:03:13;21.10;58.80
1936;DHT22;969;49.892;10.896;2023-11-21T06:05:39;21.10;58.80
1936;DHT22;969;49.892;10.896;2023-11-21T06:08:04;21.10;58.80
1936;DHT22;969;49.892;10.896;2023-11-21T06:10:32;21.10;58.80
1936;DHT22;969;49.892;10.896;2023-11-21T06:12:58;21.10;58.80
1936;DHT22;969;49.892;10.896;2023-11-21T06:15:23;21.10;58.70
1936;DHT22;969;49.892;10.896;2023-11-21T06:17:49;21.10;58.80
1936;DHT22;969;49.892;10.896;2023-11-21T06:20:18;21.10;58.80
1936;DHT22;969;49.892;10.896;2023-11-21T06:22:45;21.10;58.70
1936;DHT22;969;49.892;10.896;2023-11-21T06:25:12;21.10;58.70
1936;DHT22;969;49.892;10.896;2023-11-21T06:27:42;21.10;58.70
1936;DHT22;969;49.892;10.896;2023-11-21T06:30:10;21.10;58.70
1936;DHT22;969;49.892;10.896;2023-11-21T06:32:38;21.10;58.70
1936;DHT22;969;49.892;10.896;2023-11-21T06:35:04;21.10;58.70
1936;DHT22;969;49.892;10.896;2023-11-21T06:37:31;21.10;58.70
1936;DHT22;969;49.892;10.896;2023-11-21T06:39:57;21.10;58.80
1936;DHT22;969;49.892;10.896;2023-11-21T06:42:23;21.10;58.80
1936;DHT22;969;49.892;10.896;2023-11-21T06:44:49;21.10;58.80
1936;DHT22;969;49.892;10.896;2023-11-21T06:47:17;21.10;58.80
1936;DHT22;969;49.892;10.896;2023-11-21T06:49:43;21.10;58.80
1936;DHT22;969;49.892;10.896;2023-11-21T06:52:09;21.10;58.80
1936;DHT22;969;49.892;10.896;2023-11-21T06:54:34;21.10;58.80
1936;DHT22;969;49.892;10.896;2023-11-21T06:57:01;21.10;58.80
1936;DHT22;969;49.892;10.896;2023-11-21T06:59:28;21.10;58.90
1936;DHT22;969;49.892;10.896;2023-11-21T07:01:54;21.20;59.00
1936;DHT22;969;49.892;10.896;2023-11-21T07:04:19;21.20;58.90
1936;DHT22;969;49.892;10.896;2023-11-21T07:06:45;21.20;59.00
1936;DHT22;969;49.892;10.896;2023-11-21T07:09:11;21.20;59.00
1936;DHT22;969;49.892;10.896;2023-11-21T07:11:37;21.20;58.90
1936;DHT22;969;49.892;10.896;2023-11-21T07:14:06;21.20;58.90
1936;DHT22;969;49.892;10.896;2023-11-21T07:16:38;21.20;58.90
1936;DHT22;969;49.892;10.896;2023-11-21T07:19:05;21.30;59.00
1936;DHT22;969;49.892;10.896;2023-11-21T07:21:36;21.30;59.00
1936;DHT22;969;49.892;10.896;2023-11-21T07:24:05;21.30;59.00
1936;DHT22;969;49.892;10.896;2023-11-21T07:26:32;21.30;59.00
1936;DHT22;969;49.892;10.896;2023-11-21T07:28:59;21.30;59.00
1936;DHT22;969;49.892;10.896;2023-11-21T07:31:24;21.30;59.10
1936;DHT22;969;49.892;10.896;2023-11-21T07:33:51;21.30;59.10
1936;DHT22;969;49.892;10.896;2023-11-21T07:36:17;21.30;59.10
1936;DHT22;969;49.892;10.896;2023-11-21T07:38:47;21.30;59.10
1936;DHT22;969;49.892;10.896;2023-11-21T07:41:13;21.40;59.20
1936;DHT22;969;49.892;10.896;2023-11-21T07:43:43;21.40;59.20
1936;DHT22;969;49.892;10.896;2023-11-21T07:46:09;21.40;59.20
1936;DHT22;969;49.892;10.896;2023-11-21T07:48:35;21.40;59.20
1936;DHT22;969;49.892;10.896;2023-11-21T07:51:02;21.40;59.20
1936;DHT22;969;49.892;10.896;2023-11-21T07:53:30;21.40;59.20
1936;DHT22;969;49.892;10.896;2023-11-21T07:55:56;21.50;59.20
1936;DHT22;969;49.892;10.896;2023-11-21T07:58:22;21.50;59.20
1936;DHT22;969;49.892;10.896;2023-11-21T08:00:49;21.50;59.20
1936;DHT22;969;49.892;10.896;2023-11-21T08:03:15;21.50;59.30
1936;DHT22;969;49.892;10.896;2023-11-21T08:05:41;21.50;59.20
1936;DHT22;969;49.892;10.896;2023-11-21T08:08:07;21.50;59.20
1936;DHT22;969;49.892;10.896;2023-11-21T08:10:33;21.50;59.20
1936;DHT22;969;49.892;10.896;2023-11-21T08:12:59;21.50;59.20
1936;DHT22;969;49.892;10.896;2023-11-21T08:15:24;21.50;59.20
1936;DHT22;969;49.892;10.896;2023-11-21T08:17:50;21.50;59.20
1936;DHT22;969;49.892;10.896;2023-11-21T08:20:16;21.60;59.20
1936;DHT22;969;49.892;10.896;2023-11-21T08:22:43;21.60;59.20
1936;DHT22;969;49.892;10.896;2023-11-21T08:25:09;21.60;59.30
1936;DHT22;969;49.892;10.896;2023-11-21T08:27:35;21.60;59.20
1936;DHT22;969;49.892;10.896;2023-11-21T08:30:03;21.60;59.20
1936;DHT22;969;49.892;10.896;2023-11-21T08:32:29;21.60;59.20
1936;DHT22;969;49.892;10.896;2023-11-21T08:34:59;21.60;59.20
1936;DHT22;969;49.892;10.896;2023-11-21T08:37:24;21.60;59.20
1936;DHT22;969;49.892;10.896;2023-11-21T08:39:52;21.60;59.30
1936;DHT22;969;49.892;10.896;2023-11-21T08:42:19;21.60;59.20
1936;DHT22;969;49.892;10.896;2023-11-21T08:44:45;21.70;59.30
1936;DHT22;969;49.892;10.896;2023-11-21T08:47:11;21.70;59.30
1936;DHT22;969;49.892;10.896;2023-11-21T08:49:37;21.70;59.30
1936;DHT22;969;49.892;10.896;2023-11-21T08:52:03;21.70;59.30
1936;DHT22;969;49.892;10.896;2023-11-21T08:54:30;21.70;59.30
1936;DHT22;969;49.892;10.896;2023-11-21T08:56:56;21.70;59.30
1936;DHT22;969;49.892;10.896;2023-11-21T08:59:26;21.70;59.30
1936;DHT22;969;49.892;10.896;2023-11-21T09:01:52;21.70;59.30
1936;DHT22;969;49.892;10.896;2023-11-21T09:04:17;21.70;59.30
1936;DHT22;969;49.892;10.896;2023-11-21T09:06:43;21.70;59.30
1936;DHT22;969;49.892;10.896;2023-11-21T09:09:09;21.70;59.30
1936;DHT22;969;49.892;10.896;2023-11-21T09:11:38;21.70;59.30
1936;DHT22;969;49.892;10.896;2023-11-21T09:14:04;21.70;59.30
1936;DHT22;969;49.892;10.896;2023-11-21T09:16:30;21.70;59.30
1936;DHT22;969;49.892;10.896;2023-11-21T09:18:57;21.70;59.30
1936;DHT22;969;49.892;10.896;2023-11-21T09:21:22;21.80;59.30
1936;DHT22;969;49.892;10.896;2023-11-21T09:23:49;21.80;59.30
1936;DHT22;969;49.892;10.896;2023-11-21T09:26:15;21.80;59.30
1936;DHT22;969;49.892;10.896;2023-11-21T09:28:42;21.80;59.30
1936;DHT22;969;49.892;10.896;2023-11-21T09:31:11;21.80;59.30
1936;DHT22;969;49.892;10.896;2023-11-21T09:33:37;21.80;59.30
1936;DHT22;969;49.892;10.896;2023-11-21T09:36:04;21.80;59.30
1936;DHT22;969;49.892;10.896;2023-11-21T09:38:30;21.80;59.30
1936;DHT22;969;49.892;10.896;2023-11-21T09:40:56;21.80;59.30
1936;DHT22;969;49.892;10.896;2023-11-21T09:43:25;21.80;59.30
1936;DHT22;969;49.892;10.896;2023-11-21T09:46:00;21.80;59.30
1936;DHT22;969;49.892;10.896;2023-11-21T09:48:27;21.80;59.30
1936;DHT22;969;49.892;10.896;2023-11-21T09:50:54;21.80;59.30
1936;DHT22;969;49.892;10.896;2023-11-21T09:53:21;21.80;59.30
1936;DHT22;969;49.892;10.896;2023-11-21T09:55:49;21.80;59.30
1936;DHT22;969;49.892;10.896;2023-11-21T09:58:16;21.80;59.30
1936;DHT22;969;49.892;10.896;2023-11-21T10:00:46;21.80;59.30
1936;DHT22;969;49.892;10.896;2023-11-21T10:03:13;21.80;59.30
1936;DHT22;969;49.892;10.896;2023-11-21T10:05:40;21.80;59.20
1936;DHT22;969;49.892;10.896;2023-11-21T10:08:11;21.90;59.40
1936;DHT22;969;49.892;10.896;2023-11-21T10:10:38;21.90;59.90
1936;DHT22;969;49.892;10.896;2023-11-21T10:13:11;21.80;59.20
1936;DHT22;969;49.892;10.896;2023-11-21T10:15:38;21.90;59.40
1936;DHT22;969;49.892;10.896;2023-11-21T10:18:04;21.90;59.40
1936;DHT22;969;49.892;10.896;2023-11-21T10:20:32;21.80;59.30
1936;DHT22;969;49.892;10.896;2023-11-21T10:23:03;21.90;59.30
1936;DHT22;969;49.892;10.896;2023-11-21T10:25:30;21.90;59.40
1936;DHT22;969;49.892;10.896;2023-11-21T10:28:01;21.90;59.30
1936;DHT22;969;49.892;10.896;2023-11-21T10:30:34;21.90;59.30
1936;DHT22;969;49.892;10.896;2023-11-21T10:33:06;21.80;59.20
1936;DHT22;969;49.892;10.896;2023-11-21T10:35:43;21.90;59.30
1936;DHT22;969;49.892;10.896;2023-11-21T10:38:12;21.90;59.30
1936;DHT22;969;49.892;10.896;2023-11-21T10:40:43;21.80;59.20
1936;DHT22;969;49.892;10.896;2023-11-21T10:43:10;21.80;59.20
1936;DHT22;969;49.892;10.896;2023-11-21T10:45:37;21.80;59.20
1936;DHT22;969;49.892;10.896;2023-11-21T10:48:10;21.90;59.30
1936;DHT22;969;49.892;10.896;2023-11-21T10:50:37;21.80;59.20
1936;DHT22;969;49.892;10.896;2023-11-21T10:53:06;21.80;59.20
1936;DHT22;969;49.892;10.896;2023-11-21T10:55:32;21.80;59.20
1936;DHT22;969;49.892;10.896;2023-11-21T10:58:00;21.80;59.20
1936;DHT22;969;49.892;10.896;2023-11-21T11:00:28;21.80;59.80
1936;DHT22;969;49.892;10.896;2023-11-21T11:02:54;21.80;59.20
1936;DHT22;969;49.892;10.896;2023-11-21T11:05:21;21.90;59.80
1936;DHT22;969;49.892;10.896;2023-11-21T11:07:50;21.90;59.30
1936;DHT22;969;49.892;10.896;2023-11-21T11:10:21;21.90;59.30
1936;DHT22;969;49.892;10.896;2023-11-21T11:12:51;21.80;59.20
1936;DHT22;969;49.892;10.896;2023-11-21T11:15:18;21.80;59.20
1936;DHT22;969;49.892;10.896;2023-11-21T11:17:45;21.90;59.30
1936;DHT22;969;49.892;10.896;2023-11-21T11:20:12;21.80;59.20
1936;DHT22;969;49.892;10.896;2023-11-21T11:25:47;21.90;59.30
1936;DHT22;969;49.892;10.896;2023-11-21T11:28:21;21.90;59.30
1936;DHT22;969;49.892;10.896;2023-11-21T11:36:18;21.80;59.20
1936;DHT22;969;49.892;10.896;2023-11-21T11:38:46;21.90;59.30
1936;DHT22;969;49.892;10.896;2023-11-21T11:41:29;21.80;59.20
1936;DHT22;969;49.892;10.896;2023-11-21T11:43:58;21.90;59.30
1936;DHT22;969;49.892;10.896;2023-11-21T11:46:43;21.80;59.20
1936;DHT22;969;49.892;10.896;2023-11-21T11:49:23;21.90;59.30
1936;DHT22;969;49.892;10.896;2023-11-21T11:54:55;21.90;59.30
1936;DHT22;969;49.892;10.896;2023-11-21T11:57:24;21.80;59.20
1936;DHT22;969;49.892;10.896;2023-11-21T12:02:40;21.90;59.30
1936;DHT22;969;49.892;10.896;2023-11-21T12:05:10;21.80;59.20
1936;DHT22;969;49.892;10.896;2023-11-21T12:07:57;21.80;59.20
1936;DHT22;969;49.892;10.896;2023-11-21T12:10:30;21.90;59.20
1936;DHT22;969;49.892;10.896;2023-11-21T12:12:58;21.90;59.20
1936;DHT22;969;49.892;10.896;2023-11-21T12:15:25;21.80;59.10
1936;DHT22;969;49.892;10.896;2023-11-21T12:17:51;21.80;59.10
1936;DHT22;969;49.892;10.896;2023-11-21T12:20:22;21.80;59.00
1936;DHT22;969;49.892;10.896;2023-11-21T12:22:55;21.90;59.10
1936;DHT22;969;49.892;10.896;2023-11-21T12:25:26;21.90;59.00
1936;DHT22;969;49.892;10.896;2023-11-21T12:27:55;21.90;59.10
1936;DHT22;969;49.892;10.896;2023-11-21T12:30:23;21.80;59.00
1936;DHT22;969;49.892;10.896;2023-11-21T12:32:53;21.80;59.00
1936;DHT22;969;49.892;10.896;2023-11-21T12:35:29;21.90;59.00
1936;DHT22;969;49.892;10.896;2023-11-21T12:37:56;21.90;59.00
1936;DHT22;969;49.892;10.896;2023-11-21T12:40:22;21.90;59.00
1936;DHT22;969;49.892;10.896;2023-11-21T12:42:55;21.90;59.00
1936;DHT22;969;49.892;10.896;2023-11-21T12:45:22;21.90;59.00
1936;DHT22;969;49.892;10.896;2023-11-21T12:47:59;21.90;59.00
1936;DHT22;969;49.892;10.896;2023-11-21T12:50:29;21.90;59.00
1936;DHT22;969;49.892;10.896;2023-11-21T12:53:07;21.80;58.90
1936;DHT22;969;49.892;10.896;2023-11-21T12:55:43;21.90;58.90
1936;DHT22;969;49.892;10.896;2023-11-21T12:58:15;21.80;58.80
1936;DHT22;969;49.892;10.896;2023-11-21T13:00:46;21.80;58.80
1936;DHT22;969;49.892;10.896;2023-11-21T13:03:14;21.80;58.90
1936;DHT22;969;49.892;10.896;2023-11-21T13:05:46;21.80;58.90
1936;DHT22;969;49.892;10.896;2023-11-21T13:08:16;21.80;58.90
1936;DHT22;969;49.892;10.896;2023-11-21T13:10:46;21.80;58.80
1936;DHT22;969;49.892;10.896;2023-11-21T13:13:14;21.80;58.80
1936;DHT22;969;49.892;10.896;2023-11-21T13:16:00;21.80;58.80
1936;DHT22;969;49.892;10.896;2023-11-21T13:18:32;21.80;58.80
1936;DHT22;969;49.892;10.896;2023-11-21T13:21:02;21.80;58.80
1936;DHT22;969;49.892;10.896;2023-11-21T13:23:35;21.80;58.90
1936;DHT22;969;49.892;10.896;2023-11-21T13:26:01;21.70;58.80
1936;DHT22;969;49.892;10.896;2023-11-21T13:28:29;21.70;58.80
1936;DHT22;969;49.892;10.896;2023-11-21T13:30:58;21.70;58.80
1936;DHT22;969;49.892;10.896;2023-11-21T13:33:34;21.70;58.80
1936;DHT22;969;49.892;10.896;2023-11-21T13:36:04;21.70;58.80
1936;DHT22;969;49.892;10.896;2023-11-21T13:38:33;21.70;58.90
1936;DHT22;969;49.892;10.896;2023-11-21T13:41:00;21.70;58.90
1936;DHT22;969;49.892;10.896;2023-11-21T13:43:25;21.70;58.90
1936;DHT22;969;49.892;10.896;2023-11-21T13:45:54;21.70;59.00
1936;DHT22;969;49.892;10.896;2023-11-21T13:48:27;21.70;59.00
1936;DHT22;969;49.892;10.896;2023-11-21T13:51:07;21.70;59.00
1936;DHT22;969;49.892;10.896;2023-11-21T13:53:44;21.70;59.00
1936;DHT22;969;49.892;10.896;2023-11-21T13:56:11;21.70;59.00
1936;DHT22;969;49.892;10.896;2023-11-21T13:58:38;21.70;59.00
1936;DHT22;969;49.892;10.896;2023-11-21T14:01:24;21.70;59.00
1936;DHT22;969;49.892;10.896;2023-11-21T14:04:01;21.70;59.00
1936;DHT22;969;49.892;10.896;2023-11-21T14:06:46;21.70;59.00
1936;DHT22;969;49.892;10.896;2023-11-21T14:09:20;21.70;59.00
1936;DHT22;969;49.892;10.896;2023-11-21T14:11:59;21.70;59.00
1936;DHT22;969;49.892;10.896;2023-11-21T14:14:27;21.70;59.00
1936;DHT22;969;49.892;10.896;2023-11-21T14:16:55;21.70;59.00
1936;DHT22;969;49.892;10.896;2023-11-21T14:19:22;21.70;59.00
1936;DHT22;969;49.892;10.896;2023-11-21T14:21:52;21.70;59.00
1936;DHT22;969;49.892;10.896;2023-11-21T14:24:18;21.70;59.00
1936;DHT22;969;49.892;10.896;2023-11-21T14:26:45;21.70;59.00
1936;DHT22;969;49.892;10.896;2023-11-21T14:29:21;21.70;59.00
1936;DHT22;969;49.892;10.896;2023-11-21T14:31:49;21.70;59.00
1936;DHT22;969;49.892;10.896;2023-11-21T14:34:16;21.70;59.50
1936;DHT22;969;49.892;10.896;2023-11-21T14:36:42;21.70;59.00
1936;DHT22;969;49.892;10.896;2023-11-21T14:39:09;21.70;59.00
1936;DHT22;969;49.892;10.896;2023-11-21T14:41:46;21.70;59.00
1936;DHT22;969;49.892;10.896;2023-11-21T14:44:12;21.70;59.00
1936;DHT22;969;49.892;10.896;2023-11-21T14:46:39;21.70;59.00
1936;DHT22;969;49.892;10.896;2023-11-21T14:49:06;21.70;59.00
1936;DHT22;969;49.892;10.896;2023-11-21T14:51:49;21.70;59.00
1936;DHT22;969;49.892;10.896;2023-11-21T14:54:34;21.70;59.00
1936;DHT22;969;49.892;10.896;2023-11-21T14:57:14;21.70;59.00
1936;DHT22;969;49.892;10.896;2023-11-21T14:59:47;21.70;59.00
1936;DHT22;969;49.892;10.896;2023-11-21T15:02:17;21.70;59.00
1936;DHT22;969;49.892;10.896;2023-11-21T15:04:48;21.70;59.00
1936;DHT22;969;49.892;10.896;2023-11-21T15:07:17;21.70;59.00
1936;DHT22;969;49.892;10.896;2023-11-21T15:09:43;21.70;59.00
1936;DHT22;969;49.892;10.896;2023-11-21T15:12:11;21.70;59.00
1936;DHT22;969;49.892;10.896;2023-11-21T15:14:46;21.70;59.00
1936;DHT22;969;49.892;10.896;2023-11-21T15:17:15;21.70;59.00
1936;DHT22;969;49.892;10.896;2023-11-21T15:19:47;21.70;59.00
1936;DHT22;969;49.892;10.896;2023-11-21T15:22:13;21.80;59.10
1936;DHT22;969;49.892;10.896;2023-11-21T15:24:41;21.80;59.20
1936;DHT22;969;49.892;10.896;2023-11-21T15:27:08;21.80;59.10
1936;DHT22;969;49.892;10.896;2023-11-21T15:29:34;21.80;59.10
1936;DHT22;969;49.892;10.896;2023-11-21T15:32:00;21.80;59.10
1936;DHT22;969;49.892;10.896;2023-11-21T15:34:26;21.80;59.10
1936;DHT22;969;49.892;10.896;2023-11-21T15:36:54;21.80;59.10
1936;DHT22;969;49.892;10.896;2023-11-21T15:39:20;21.80;59.10
1936;DHT22;969;49.892;10.896;2023-11-21T15:41:47;21.80;59.20
1936;DHT22;969;49.892;10.896;2023-11-21T15:44:13;21.80;59.20
1936;DHT22;969;49.892;10.896;2023-11-21T15:46:39;21.80;59.10
1936;DHT22;969;49.892;10.896;2023-11-21T15:49:07;21.80;59.10
1936;DHT22;969;49.892;10.896;2023-11-21T15:51:42;21.80;59.20
1936;DHT22;969;49.892;10.896;2023-11-21T15:54:10;21.90;59.20
1936;DHT22;969;49.892;10.896;2023-11-21T15:56:36;21.90;59.20
1936;DHT22;969;49.892;10.896;2023-11-21T15:59:03;21.80;59.20
1936;DHT22;969;49.892;10.896;2023-11-21T16:01:29;21.90;59.30
1936;DHT22;969;49.892;10.896;2023-11-21T16:03:55;21.90;59.20
1936;DHT22;969;49.892;10.896;2023-11-21T16:06:20;21.90;59.20
1936;DHT22;969;49.892;10.896;2023-11-21T16:08:46;21.90;59.20
1936;DHT22;969;49.892;10.896;2023-11-21T16:11:13;21.90;59.20
1936;DHT22;969;49.892;10.896;2023-11-21T16:13:39;21.90;59.20
1936;DHT22;969;49.892;10.896;2023-11-21T16:16:06;21.90;59.20
1936;DHT22;969;49.892;10.896;2023-11-21T16:18:32;21.90;59.20
1936;DHT22;969;49.892;10.896;2023-11-21T16:20:57;21.90;59.20